Latest Weather Observations for Larapuna (Eddystone Point)

IDT60801

Issued at 6:31 pm EST Monday 1 June 2020 (issued every 10 minutes, with the page automatically refreshed every 10 minutes)

About weather observations | Map of weather stations | Latest weather observations for TAS | Other Formats
Station Details ID: 092045 Name: LARAPUNA (EDDYSTONE POINT) Lat: -40.99 Lon: 148.35 Height: 19.7 m
Data from the previous 72 hours. | See also: Recent months at Larapuna (Eddystone Point)
Date/Time
EST
Temp
°C
App
Temp
°C
Dew
Point
°C
Rel
Hum
%
Delta-T
°C
Wind Press
QNH
hPa
Press
MSL
hPa
Rain since
9am
mm
Dir  Spd
km/h
Gust
km/h
Spd
kts
Gust
kts
01/06:30pm 10.0 7.1 8.3 89 0.8 NW 13 17 7 9 1006.6 1006.6 0.0
01/06:00pm 10.2 7.3 8.3 88 0.9 WNW 13 15 7 8 1006.1 1006.1 0.0
01/05:30pm 10.4 7.9 8.2 86 1.1 WNW 11 13 6 7 1005.9 1005.9 0.0
01/05:00pm 11.0 8.1 8.2 83 1.4 W 13 17 7 9 1005.3 1005.3 0.0
01/04:30pm 12.5 9.7 8.4 76 2.0 W 13 17 7 9 1004.8 1004.8 0.0
01/04:00pm 14.3 12.0 9.1 71 2.7 W 11 17 6 9 1004.6 1004.6 0.0
01/03:30pm 13.7 10.0 9.6 76 2.1 WNW 19 26 10 14 1004.4 1004.4 0.0
01/03:00pm 13.7 10.3 9.0 73 2.4 WNW 17 26 9 14 1004.2 1004.2 0.0
01/02:30pm 15.5 12.8 10.3 71 2.7 WNW 15 20 8 11 1003.7 1003.7 0.0
01/02:00pm 15.4 11.6 9.1 66 3.2 NW 19 26 10 14 1003.6 1003.6 0.0
01/01:30pm 16.0 12.2 9.0 63 3.6 NW 19 26 10 14 1003.5 1003.5 0.0
01/01:00pm 16.7 13.2 11.0 69 3.1 NW 20 26 11 14 1003.4 1003.4 0.0
01/12:30pm 16.0 12.7 11.0 72 2.7 NNW 19 24 10 13 1003.5 1003.5 0.0
01/12:00pm 15.6 12.9 11.6 77 2.2 NNW 17 24 9 13 1003.7 1003.7 0.0
01/11:30am 13.4 10.5 10.9 85 1.3 NNW 17 24 9 13 1003.7 1003.7 0.0
01/11:00am 12.6 9.2 10.7 88 1.0 NW 19 30 10 16 1004.1 1004.1 0.0
01/10:30am 13.0 9.8 11.1 88 1.0 NW 19 26 10 14 1004.0 1004.0 0.0
01/10:00am 12.9 10.1 11.3 90 0.8 WNW 17 24 9 13 1003.7 1003.7 0.0
01/09:30am 11.8 8.4 10.4 91 0.7 WNW 19 26 10 14 1003.5 1003.5 0.0
01/09:00am 12.0 8.5 10.9 93 0.6 NW 20 26 11 14 1003.2 1003.2 5.4
01/08:30am 10.8 7.6 9.9 94 0.5 NW 17 20 9 11 1003.4 1003.4 5.4
01/08:00am 9.8 7.1 8.9 94 0.4 WNW 13 17 7 9 1003.3 1003.3 5.4
01/07:30am 10.2 7.6 9.4 95 0.4 WNW 13 20 7 11 1003.2 1003.2 5.2
01/07:00am 10.6 6.8 9.8 95 0.4 NNW 20 26 11 14 1003.1 1003.1 4.6
01/06:30am 9.9 6.5 9.1 95 0.4 NNW 17 24 9 13 1003.0 1003.0 4.6
01/06:00am 9.9 6.1 9.0 94 0.4 NNW 19 24 10 13 1003.1 1003.1 4.6
01/05:30am 9.7 5.6 8.8 94 0.4 NNW 20 32 11 17 1003.2 1003.2 3.8
01/05:00am 9.6 4.4 8.7 94 0.4 NW 26 39 14 21 1003.2 1003.2 3.6
01/04:56am 9.8 3.5 8.9 94 0.4 NW 32 46 17 25 1003.3 1003.3 3.6
01/04:40am 10.0 2.8 9.1 94 0.4 NNW 37 57 20 31 1003.0 1003.0 3.6
01/04:34am 10.5 5.9 9.6 94 0.5 NNW 24 54 13 29 1003.0 1003.0 3.2
01/04:30am 10.3 6.6 9.4 94 0.4 NW 19 22 10 12 1002.9 1002.9 3.0
01/04:00am 9.8 6.7 8.9 94 0.4 NW 15 20 8 11 1002.9 1002.9 3.0
01/03:30am 9.7 6.6 8.8 94 0.4 NW 15 20 8 11 1003.2 1003.2 3.0
01/03:00am 9.9 6.4 8.8 93 0.5 WNW 17 24 9 13 1003.6 1003.6 3.0
01/02:30am 10.7 6.8 9.6 93 0.6 NW 20 32 11 17 1003.8 1003.8 2.2
01/02:00am 10.5 6.5 8.9 90 0.8 WNW 20 33 11 18 1004.2 1004.2 1.6
01/01:30am 11.7 5.2 10.4 92 0.7 NNW 35 44 19 24 1004.3 1004.3 1.6
01/01:17am 11.4 7.0 10.3 93 0.6 NNW 24 48 13 26 1004.5 1004.5 1.6
01/01:00am 10.6 7.3 9.5 93 0.6 NW 17 22 9 12 1004.8 1004.8 1.6
01/12:30am 10.4 7.8 9.3 93 0.5 WNW 13 17 7 9 1005.3 1005.3 1.6
01/12:00am 10.9 7.3 9.7 92 0.6 NNW 19 26 10 14 1005.7 1005.7 1.4
 
Date/Time
EST
Temp
°C
App
Temp
°C
Dew
Point
°C
Rel
Hum
%
Delta-T
°C
Wind Press
QNH
hPa
Press
MSL
hPa
Rain since
9am
mm
Dir  Spd
km/h
Gust
km/h
Spd
kts
Gust
kts
31/11:30pm 10.3 7.2 8.9 91 0.7 NW 15 22 8 12 1006.0 1006.0 1.2
31/11:00pm 10.3 7.1 8.4 88 0.9 NW 15 20 8 11 1006.5 1006.5 1.0
31/10:30pm 10.5 7.0 7.4 81 1.5 WNW 15 22 8 12 1006.8 1006.8 0.6
31/10:00pm 11.7 7.2 8.4 80 1.6 NW 22 32 12 17 1007.2 1007.2 0.6
31/09:30pm 11.2 6.7 8.4 83 1.4 NW 22 30 12 16 1007.5 1007.5 0.6
31/09:00pm 11.1 7.0 8.7 85 1.2 NNW 20 28 11 15 1007.7 1007.7 0.6
31/08:30pm 10.9 6.4 8.7 86 1.1 NW 22 30 12 16 1007.8 1007.8 0.6
31/08:00pm 10.9 6.5 8.8 87 1.0 NNW 22 33 12 18 1008.0 1008.0 0.6
31/07:30pm 10.3 7.1 8.6 89 0.8 NNW 15 22 8 12 1008.0 1008.0 0.6
31/07:00pm 10.3 7.5 8.4 88 0.9 NW 13 17 7 9 1008.0 1008.0 0.6
31/06:30pm 10.4 6.8 8.5 88 0.9 NW 17 22 9 12 1008.1 1008.1 0.6
31/06:00pm 10.6 6.7 8.7 88 0.9 NW 19 24 10 13 1008.0 1008.0 0.6
31/05:30pm 10.6 6.5 8.7 88 0.9 NW 20 28 11 15 1008.0 1008.0 0.6
31/05:00pm 10.7 6.6 8.8 88 0.9 NW 20 26 11 14 1007.9 1007.9 0.6
31/04:30pm 10.7 6.2 8.6 87 1.0 NW 22 28 12 15 1007.8 1007.8 0.6
31/04:00pm 11.3 4.8 8.0 80 1.6 WNW 32 50 17 27 1007.9 1007.9 0.6
31/03:54pm 13.0 6.6 8.5 74 2.2 WNW 32 50 17 27 1008.1 1008.1 0.0
31/03:30pm 14.5 7.9 7.8 64 3.3 NW 32 39 17 21 1007.6 1007.6 0.0
31/03:00pm 15.4 9.0 8.4 63 3.6 WNW 32 43 17 23 1007.7 1007.7 0.0
31/02:30pm 14.5 8.8 8.2 66 3.2 NW 28 39 15 21 1007.6 1007.6 0.0
31/02:00pm 14.6 10.3 9.4 71 2.7 WNW 22 33 12 18 1007.6 1007.6 0.0
31/01:30pm 15.9 9.9 8.6 62 3.7 NW 30 37 16 20 1007.9 1007.9 0.0
31/01:00pm 15.7 11.2 8.4 62 3.7 NW 22 35 12 19 1008.1 1008.1 0.0
31/12:30pm 15.7 11.8 9.4 66 3.3 WNW 20 30 11 16 1008.4 1008.4 0.0
31/12:00pm 15.4 10.1 8.4 63 3.5 WNW 26 37 14 20 1008.9 1008.9 0.0
31/11:30am 15.4 10.2 8.9 65 3.3 WNW 26 35 14 19 1009.3 1009.3 0.0
31/11:00am 14.4 9.6 9.0 70 2.8 WNW 24 32 13 17 1009.8 1009.8 0.0
31/10:30am 15.7 11.6 10.2 70 2.9 WNW 22 35 12 19 1009.9 1009.9 0.0
31/10:00am 15.0 10.0 9.6 70 2.8 WNW 26 39 14 21 1010.0 1010.0 0.0
31/09:30am 13.4 8.4 9.5 77 2.0 WNW 26 37 14 20 1010.0 1010.0 0.0
31/09:00am 13.7 7.8 10.3 80 1.8 NW 32 41 17 22 1009.8 1009.8 0.4
31/08:30am 13.4 7.9 10.6 83 1.5 NW 30 41 16 22 1009.5 1009.5 0.4
31/08:00am 13.1 6.3 10.6 85 1.3 NW 37 50 20 27 1008.9 1008.9 0.4
31/07:36am 12.9 4.9 10.4 85 1.3 NW 43 61 23 33 1008.5 1008.5 0.4
31/07:30am 13.1 5.1 10.5 84 1.4 NW 43 57 23 31 1008.4 1008.4 0.4
31/07:00am 12.7 4.7 10.6 87 1.1 NW 43 57 23 31 1008.1 1008.1 0.4
31/06:41am 12.6 5.8 10.8 89 0.9 NW 37 56 20 30 1008.3 1008.3 0.4
31/06:30am 12.3 5.5 10.7 90 0.8 NW 37 48 20 26 1008.4 1008.4 0.4
31/06:15am 12.0 4.8 10.6 91 0.7 NW 39 57 21 31 1008.3 1008.3 0.4
31/06:00am 11.6 2.9 10.0 90 0.8 NW 46 59 25 32 1008.1 1008.1 0.4
31/05:58am 11.6 2.9 10.0 90 0.8 NW 46 63 25 34 1008.1 1008.1 0.4
31/05:30am 13.8 1.9 8.8 72 2.5 NW 61 83 33 45 1007.6 1007.6 0.0
31/05:05am 15.0 4.4 8.3 64 3.4 NW 54 91 29 49 1007.3 1007.3 0.0
31/05:00am 15.1 5.7 8.6 65 3.3 NNW 48 67 26 36 1007.3 1007.3 0.0
31/04:38am 14.4 6.7 8.8 69 2.8 NW 39 57 21 31 1007.4 1007.4 0.0
31/04:30am 14.5 6.9 8.9 69 2.8 NW 39 54 21 29 1007.5 1007.5 0.0
31/04:00am 14.9 6.6 7.9 63 3.5 NW 41 56 22 30 1007.9 1007.9 0.0
31/03:30am 14.8 6.5 9.4 70 2.8 NW 43 61 23 33 1007.8 1007.8 0.0
31/03:23am 14.9 6.5 9.1 68 3.0 NW 43 61 23 33 1007.7 1007.7 0.0
31/03:00am 14.7 7.3 9.7 72 2.6 NNW 39 52 21 28 1007.7 1007.7 0.0
31/02:30am 14.6 7.0 10.6 77 2.1 NNW 41 52 22 28 1008.0 1008.0 0.0
31/02:00am 14.6 6.0 10.4 76 2.2 NNW 46 57 25 31 1008.2 1008.2 0.0
31/01:33am 14.5 6.4 10.1 75 2.3 NNW 43 63 23 34 1008.4 1008.4 0.0
31/01:30am 14.5 6.5 10.3 76 2.2 NNW 43 59 23 32 1008.4 1008.4 0.0
31/01:26am 14.5 6.8 10.3 76 2.2 NNW 41 59 22 32 1008.5 1008.5 0.0
31/01:00am 14.4 7.3 9.6 73 2.5 NNW 37 50 20 27 1009.2 1009.2 0.0
31/12:34am 13.9 8.4 9.3 74 2.3 NNW 28 46 15 25 1009.7 1009.7 0.0
31/12:30am 13.6 8.5 9.3 75 2.2 NNW 26 35 14 19 1009.7 1009.7 0.0
31/12:00am 14.0 7.3 9.8 76 2.2 NNW 35 44 19 24 1010.4 1010.4 0.0
 
Date/Time
EST
Temp
°C
App
Temp
°C
Dew
Point
°C
Rel
Hum
%
Delta-T
°C
Wind Press
QNH
hPa
Press
MSL
hPa
Rain since
9am
mm
Dir  Spd
km/h
Gust
km/h
Spd
kts
Gust
kts
30/11:30pm 13.9 6.5 9.7 76 2.2 NNW 39 46 21 25 1010.9 1010.9 0.0
30/11:00pm 13.4 6.5 10.4 82 1.6 NNW 37 48 20 26 1011.4 1011.4 0.0
30/10:30pm 13.5 7.1 10.7 83 1.5 NNW 35 46 19 25 1011.5 1011.5 0.0
30/10:00pm 13.5 7.0 10.5 82 1.6 N 35 46 19 25 1011.5 1011.5 0.0
30/09:30pm 13.2 6.2 9.8 80 1.7 N 37 44 20 24 1011.8 1011.8 0.0
30/09:00pm 13.0 7.5 10.7 86 1.2 N 30 37 16 20 1012.3 1012.3 0.0
30/08:30pm 13.2 6.6 11.3 88 1.0 N 37 44 20 24 1013.0 1013.0 0.0
30/08:00pm 13.3 7.0 11.2 87 1.1 N 35 43 19 23 1013.2 1013.2 0.0
30/07:30pm 13.5 6.9 11.4 87 1.1 N 37 44 20 24 1013.7 1013.7 0.0
30/07:00pm 13.7 8.4 11.2 85 1.3 N 30 39 16 21 1014.1 1014.1 0.0
30/06:30pm 13.7 8.3 10.9 83 1.5 N 30 37 16 20 1014.7 1014.7 0.0
30/06:00pm 12.4 9.3 8.7 78 1.8 NNW 15 20 8 11 1015.3 1015.3 0.0
30/05:30pm 13.6 8.9 7.8 68 2.9 NNW 22 28 12 15 1015.3 1015.3 0.0
30/05:00pm 13.8 8.8 8.2 69 2.8 NNW 24 30 13 16 1015.8 1015.8 0.0
30/04:30pm 14.3 8.4 7.6 64 3.3 NNW 28 33 15 18 1016.4 1016.4 0.0
30/04:00pm 15.3 9.6 8.3 63 3.5 NNW 28 35 15 19 1016.7 1016.7 0.0
30/03:30pm 15.9 9.9 8.6 62 3.7 NNW 30 37 16 20 1016.9 1016.9 0.0
30/03:00pm 16.5 10.2 9.0 61 3.9 NNW 32 39 17 21 1017.2 1017.2 0.0
30/02:30pm 16.8 9.9 8.8 59 4.1 NNW 35 43 19 23 1017.5 1017.5 0.0
30/02:00pm 17.0 10.1 8.9 59 4.2 NNW 35 44 19 24 1017.9 1017.9 0.0
30/01:30pm 17.0 10.2 9.2 60 4.1 NNW 35 48 19 26 1018.2 1018.2 0.0
30/01:00pm 17.0 9.8 9.2 60 4.0 NNW 37 46 20 25 1018.8 1018.8 0.0
30/12:30pm 16.9 9.7 9.1 60 4.0 NNW 37 50 20 27 1019.5 1019.5 0.0
30/12:00pm 16.9 9.5 9.8 63 3.7 NNW 39 50 21 27 1020.2 1020.2 0.0
30/11:30am 16.3 9.1 9.0 62 3.8 NNW 37 50 20 27 1020.8 1020.8 0.0
30/11:00am 16.2 9.2 9.8 66 3.3 NNW 37 50 20 27 1021.4 1021.4 0.0
30/10:30am 16.3 9.9 10.6 69 3.0 N 35 44 19 24 1021.9 1021.9 0.0
30/10:00am 15.5 7.2 9.4 67 3.1 NNW 43 50 23 27 1022.0 1022.0 0.0
30/09:30am 15.3 8.3 9.9 70 2.8 NNW 37 50 20 27 1022.1 1022.1 0.0
30/09:00am 15.0 8.4 10.0 72 2.6 NNW 35 46 19 25 1022.1 1022.1 0.0
30/08:30am 14.3 7.0 10.1 76 2.2 NNW 39 48 21 26 1022.0 1022.0 0.0
30/08:00am 13.7 6.0 10.3 80 1.8 NNW 41 52 22 28 1021.9 1021.9 0.0
30/07:30am 13.5 6.3 10.5 82 1.6 NNW 39 52 21 28 1021.8 1021.8 0.0
30/07:00am 13.4 6.5 10.4 82 1.6 NNW 37 48 20 26 1022.0 1022.0 0.0
30/06:30am 13.4 6.2 10.6 83 1.5 NNW 39 48 21 26 1021.8 1021.8 0.0
30/06:00am 13.5 6.8 10.9 84 1.4 NNW 37 50 20 27 1021.7 1021.7 0.0
30/05:30am 13.4 6.6 10.8 84 1.4 NNW 37 50 20 27 1021.6 1021.6 0.0
30/05:00am 13.4 6.4 11.1 86 1.2 NNW 39 50 21 27 1021.4 1021.4 0.0
30/04:30am 13.3 6.6 11.0 86 1.2 NNW 37 48 20 26 1021.3 1021.3 0.0
30/04:00am 13.4 7.1 10.9 85 1.3 NNW 35 46 19 25 1021.3 1021.3 0.0
30/03:30am 13.4 6.7 11.1 86 1.2 NNW 37 48 20 26 1021.4 1021.4 0.0
30/03:00am 13.0 8.0 10.9 87 1.1 NNW 28 35 15 19 1021.6 1021.6 0.0
30/02:30am 12.5 7.6 10.0 85 1.3 NNW 26 33 14 18 1022.0 1022.0 0.0
30/02:00am 11.9 7.5 9.1 83 1.4 NW 22 30 12 16 1022.3 1022.3 0.0
30/01:30am 11.5 7.0 8.7 83 1.4 NW 22 28 12 15 1022.3 1022.3 0.0
30/01:00am 11.2 7.1 8.6 84 1.3 NW 20 26 11 14 1022.4 1022.4 0.0
30/12:30am 11.4 7.3 8.8 84 1.3 NW 20 28 11 15 1022.5 1022.5 0.0
30/12:00am 11.6 6.5 9.2 85 1.2 NW 26 32 14 17 1022.6 1022.6 0.0
 
Date/Time
EST
Temp
°C
App
Temp
°C
Dew
Point
°C
Rel
Hum
%
Delta-T
°C
Wind Press
QNH
hPa
Press
MSL
hPa
Rain since
9am
mm
Dir  Spd
km/h
Gust
km/h
Spd
kts
Gust
kts
29/11:30pm 11.6 7.0 9.5 87 1.1 NNW 24 35 13 19 1022.7 1022.7 0.0
29/11:00pm 11.9 6.6 9.8 87 1.1 NW 28 33 15 18 1022.6 1022.6 0.0
29/10:30pm 11.9 6.6 10.0 88 1.0 NW 28 35 15 19 1022.9 1022.9 0.0
29/10:00pm 12.1 7.6 10.0 87 1.1 NW 24 32 13 17 1023.2 1023.2 0.0
29/09:30pm 12.3 8.2 10.2 87 1.1 NNW 22 32 12 17 1023.3 1023.3 0.0
29/09:00pm 12.3 8.6 10.2 87 1.1 NNW 20 26 11 14 1023.2 1023.2 0.0
29/08:30pm 12.4 8.7 10.3 87 1.1 NNW 20 28 11 15 1023.3 1023.3 0.0
29/08:00pm 12.3 7.8 10.2 87 1.1 NW 24 32 13 17 1023.2 1023.2 0.0
29/07:30pm 12.5 8.5 10.4 87 1.1 NW 22 30 12 16 1023.0 1023.0 0.0
29/07:00pm 12.7 8.2 10.2 85 1.3 NW 24 30 13 16 1023.0 1023.0 0.0

Other formats

Comma delimited format used in spreadsheet applications
http://www.bom.gov.au/fwo/IDT60801/IDT60801.94983.axf

JavaScript Object Notation format (JSON) in row-major order
http://www.bom.gov.au/fwo/IDT60801/IDT60801.94983.json

Data quality

Most of these data are generated automatically and are frequently updated. Quality checks on data are not normally performed. It is possible for incorrect values to appear. Refer to information at About Latest Weather Observations and please check the disclaimer before using these data.